»·PEaware :: AAY9040 KLAS-KSMX

AAY9040 :: KLAS-KSMX

FLIGHT INFORMATION

Flight Status: Arrived
Operator:
Allegiant Air
More flights by this operator :: More flights under this callsign
Pilot: Skye D. (10623)
Aircraft: AIRBUS A319
(A319)
More flights by this aircraft type
Origin: KLAS McCarran Intl
United States
Destination: KSMX Santa Maria Pub/Capt Hancock
United States
More flights between these airports :: More routes between these airports
Route: +BOACH8 HEC FIM RZS RZS286 KOAKS
File this flight plan on PilotEdge
Remarks:
Altitude:
(Current/Filed)
32,000ft
Speed:
(Current/Filed)
434kts
Departed: 05-Oct-18 12:27 PM
Arrived: 05-Oct-18 01:28 PM
Distance/Time
Traveled:
268nm/1:01
Distance/Time
To Go:
Arrived

Flight Plot

Page will automatically refresh every two minutes.

Flight plan parsing failed; only flown route is shown


Map Options




Map Legend


Flown Route
Filed Route
Departure Airport
Arrival Airport
Navaid (VOR, NDB)
Fix

Horizontal Profiles

Position Reports

Time Latitude Longitude Heading Altitude Ground
Speed
05-Oct-18 11:56 36.080259 -115.136105 61 2065ft 0kts
05-Oct-18 11:57 36.080259 -115.136105 61 2065ft 0kts
05-Oct-18 11:58 36.080259 -115.136105 61 2065ft 0kts
05-Oct-18 11:59 36.080259 -115.136105 61 2065ft 0kts
05-Oct-18 12:00 36.080259 -115.136105 61 2065ft 0kts
05-Oct-18 12:01 36.080259 -115.136105 61 2065ft 0kts
05-Oct-18 12:02 36.080259 -115.136105 61 2065ft 0kts
05-Oct-18 12:03 36.080259 -115.136105 61 2065ft 0kts
05-Oct-18 12:04 36.080259 -115.136105 61 2065ft 0kts
05-Oct-18 12:05 36.080259 -115.136105 61 2065ft 0kts
05-Oct-18 12:06 36.080259 -115.136105 61 2065ft 0kts
05-Oct-18 12:07 36.080259 -115.136105 61 2065ft 0kts
05-Oct-18 12:08 36.080259 -115.136105 61 2065ft 0kts
05-Oct-18 12:09 36.080259 -115.136105 61 2065ft 0kts
05-Oct-18 12:10 36.080259 -115.136105 61 2065ft 0kts
05-Oct-18 12:11 36.080259 -115.136105 61 2065ft 0kts
05-Oct-18 12:12 36.080259 -115.136105 61 2065ft 0kts
05-Oct-18 12:13 36.080259 -115.136105 61 2065ft 0kts
05-Oct-18 12:14 36.079986 -115.137060 119 2067ft 5kts
05-Oct-18 12:15 36.080041 -115.137147 131 2068ft 0kts
05-Oct-18 12:16 36.080041 -115.137147 131 2068ft 0kts
05-Oct-18 12:17 36.080041 -115.137147 131 2068ft 0kts
05-Oct-18 12:18 36.079130 -115.136218 137 2067ft 0kts
05-Oct-18 12:19 36.079129 -115.136216 137 2067ft 0kts
05-Oct-18 12:20 36.079129 -115.136216 137 2067ft 0kts
05-Oct-18 12:21 36.078176 -115.134366 111 2064ft 17kts
05-Oct-18 12:22 36.077555 -115.136244 269 2069ft 13kts
05-Oct-18 12:23 36.077559 -115.141031 271 2085ft 25kts
05-Oct-18 12:24 36.077824 -115.147741 273 2105ft 28kts
05-Oct-18 12:25 36.078039 -115.154573 268 2130ft 25kts
05-Oct-18 12:26 36.078020 -115.161611 269 2155ft 26kts
05-Oct-18 12:27 36.078014 -115.163986 269 2163ft 8kts
05-Oct-18 12:28 36.078699 -115.164926 23 2163ft 16kts
05-Oct-18 12:29 36.099396 -115.152991 25 2724ft 159kts
05-Oct-18 12:30 36.126152 -115.174780 271 4907ft 197kts
05-Oct-18 12:31 36.114560 -115.243665 261 7121ft 257kts
05-Oct-18 12:32 36.072180 -115.305564 181 10006ft 296kts
05-Oct-18 12:33 35.987837 -115.302293 179 12996ft 319kts
05-Oct-18 12:34 35.898972 -115.300101 180 15733ft 338kts
05-Oct-18 12:35 35.804905 -115.298068 180 18188ft 354kts
05-Oct-18 12:36 35.706403 -115.298781 198 19624ft 368kts
05-Oct-18 12:37 35.635630 -115.382867 235 21646ft 368kts
05-Oct-18 12:38 35.568266 -115.473664 233 23052ft 379kts
05-Oct-18 12:39 35.495711 -115.568163 233 24444ft 386kts
05-Oct-18 12:40 35.421650 -115.664077 233 26316ft 394kts
05-Oct-18 12:41 35.346517 -115.762345 232 28041ft 401kts
05-Oct-18 12:42 35.270198 -115.860803 232 29606ft 409kts
05-Oct-18 12:43 35.192197 -115.961010 232 31088ft 415kts
05-Oct-18 12:44 35.113488 -116.061657 232 32080ft 417kts
05-Oct-18 12:45 35.036193 -116.160310 232 32104ft 434kts
05-Oct-18 12:46 34.954446 -116.264238 232 32101ft 441kts
05-Oct-18 12:47 34.870737 -116.370243 232 32096ft 441kts
05-Oct-18 12:48 34.800967 -116.486917 251 32095ft 426kts
05-Oct-18 12:49 34.773233 -116.617561 274 32094ft 408kts
05-Oct-18 12:50 34.774434 -116.742363 275 32093ft 407kts
05-Oct-18 12:51 34.775629 -116.873901 275 32093ft 407kts
05-Oct-18 12:52 34.776445 -117.005453 275 32093ft 407kts
05-Oct-18 12:53 34.777089 -117.139154 275 32093ft 407kts
05-Oct-18 12:54 34.777591 -117.274694 274 32112ft 406kts
05-Oct-18 12:55 34.777930 -117.408099 274 32124ft 405kts
05-Oct-18 12:56 34.778122 -117.543218 274 32127ft 405kts
05-Oct-18 12:57 34.778225 -117.676624 274 32108ft 405kts
05-Oct-18 12:58 34.778696 -117.812351 274 32091ft 405kts
05-Oct-18 12:59 34.778575 -117.947769 274 32086ft 405kts
05-Oct-18 13:00 34.778188 -118.083791 274 32085ft 405kts
05-Oct-18 13:01 34.777629 -118.220601 274 32102ft 405kts
05-Oct-18 13:02 34.776948 -118.352624 275 30259ft 413kts
05-Oct-18 13:03 34.776153 -118.490156 274 27813ft 422kts
05-Oct-18 13:04 34.775093 -118.628668 274 25353ft 409kts
05-Oct-18 13:05 34.774516 -118.753188 273 23039ft 394kts
05-Oct-18 13:06 34.773796 -118.856996 273 21830ft 387kts
05-Oct-18 13:07 34.772366 -118.998766 273 20179ft 379kts
05-Oct-18 13:08 34.771271 -119.096425 273 19223ft 375kts
05-Oct-18 13:09 34.769612 -119.232024 272 17551ft 366kts
05-Oct-18 13:10 34.768197 -119.343077 272 15207ft 355kts
05-Oct-18 13:11 34.766871 -119.434603 272 14170ft 319kts
05-Oct-18 13:12 34.765296 -119.546158 272 12741ft 280kts
05-Oct-18 13:13 34.764202 -119.621618 272 10633ft 277kts
05-Oct-18 13:14 34.763069 -119.710658 270 8972ft 271kts
05-Oct-18 13:15 34.751403 -119.793695 261 7991ft 265kts
05-Oct-18 13:16 34.737839 -119.874078 261 7967ft 265kts
05-Oct-18 13:17 34.723521 -119.958385 261 7630ft 261kts
05-Oct-18 13:18 34.710018 -120.040152 261 5964ft 242kts
05-Oct-18 13:19 34.699519 -120.104233 261 5712ft 206kts
05-Oct-18 13:20 34.689672 -120.166401 261 4270ft 202kts
05-Oct-18 13:21 34.681100 -120.226171 261 3467ft 178kts
05-Oct-18 13:22 34.682459 -120.280845 307 3493ft 176kts
05-Oct-18 13:23 34.714417 -120.320487 314 3492ft 175kts
05-Oct-18 13:24 34.750909 -120.349449 327 2787ft 180kts
05-Oct-18 13:25 34.783247 -120.371490 327 2455ft 132kts
05-Oct-18 13:26 34.810408 -120.390125 327 2299ft 128kts
05-Oct-18 13:27 34.837959 -120.408818 328 1730ft 126kts
05-Oct-18 13:28 34.865050 -120.426196 329 1027ft 126kts
05-Oct-18 13:29 34.891139 -120.443830 314 356ft 123kts
05-Oct-18 13:30 34.901485 -120.456152 315 270ft 28kts
05-Oct-18 13:31 34.903316 -120.455905 126 270ft 7kts
05-Oct-18 13:32 34.900871 -120.452972 135 270ft 15kts
05-Oct-18 13:33 34.898665 -120.449917 93 270ft 10kts
05-Oct-18 13:34 34.899092 -120.448641 184 270ft 0kts
05-Oct-18 13:35 34.899052 -120.448657 198 270ft 0kts
05-Oct-18 13:36 34.899052 -120.448657 198 270ft 0kts
05-Oct-18 13:37 34.899052 -120.448657 198 270ft 0kts

Navigation Log

Ident Type
Flight plan parsing failed, navigation log unavailable